Hauptseite
METAR-TAF:

METAR-TAF

Flughäfen :

Morelia, Mexiko

Breite: 19-51N, Länge: 101-02W, Höhe: 1833 m

Beobachtung

Neuester Wetterbericht von vor 11 Stunden und 5 Minuten, um 19:40 UTC
Wind 7 kt aus Süd
Temperatur 26°C
Luftfeuchtigkeit 28%
Luftdruck 1020 hPa
Sichtweite: 12.9 km
Himmel klar

METAR: MMMM 261940Z 18007KT 8SM SKC 26/06 A3011

Zeit: 00:45 (06:45 UTC)

Prognose

Neuester Wetterbericht von vor 13 Stunden und 33 Minuten, um 17:12 UTC
Gültige Prognose vom 26 um 18 UTC bis 27 um 24 UTC
Wind 10 kt aus Südwest
Sichtweite: 10 km
Himmel klar
Ab 27 um 0600 UTC
Wind 5 kt aus Süd
Sichtweite: 10 km
Himmel klar
Ab 27 um 1200 UTC
Wind 5 kt aus Nord/Nordost
Sichtweite: 10 km
Himmel klar
Ab 27 um 1800 UTC
Wind 12 kt aus West/Südwest
Sichtweite: 10 km
Himmel klar

TAF: MMMM 261712Z 2618/2724 22010KT P6SM SKC FM270600 18005KT P6SM SKC FM271200 02005KT P6SM SKC FM271800 24012KT P6SM SKC

Wetterbeobachtungen und Prognosen von mehr als 4000 Flughäfen (METAR und TAF Bericht).

Die verfügbaren Stationen werden durch gelbe und rote Markierungen auf der Karte dargestellt.

Führen Sie die Maus auf sie, um den Namen der Station zu sehen.

Darauf klicken, um die Beobachtung von Wetterbeobachtungen und Prognosen zu sehen.

Um die Karte zu ändern : klicken Sie auf den grünen Tasten mit einem schwarzen Kreuz Zum Vergrößern, auf den grünen Button mit einem Gedankenstrich zu verkleinern, oder auf die grünen Pfeile für benachbarte Karten.


METAR-TAF: